Santa Cruz/El Trompillo, Bolivia
Current Conditions -  °F | °C
As of 10:00 AM on Thursday 29 Jan 2015 (Local Time) from SLET Reporting Station
Broken Clouds Broken Clouds  
Wind Chill: 77°   Ceiling: 1200
Heat Index: 78°   Visibility: 6mi
Dew Point: 72°   Wind: 13mph
Humidity: 83%   Direction: 300°WNW
Pressure: 29.94"   Gusts: 24mph
Location:  17.81°S, 63.17°W
Report Text: SLET 291400Z 30011G21KT 9999 BKN012 BKN017 FEW030CB 25/22 Q1014
Loading
Personal Weather Stations






























Interactive Weather Map New forecast layout! Learn more

10-Day Weather Forecast

Advertisements
Track Severe Weather on mobile